Time;durP1;ratioP1;P1;durP2;ratioP2;P2;SDS_P1;SDS_P2;PMS_P1;PMS_P2;Temp;Humidity;BMP_temperature;BMP_pressure;BME280_temperature;BME280_humidity;BME280_pressure;Samples;Min_cycle;Max_cycle;Signal;HPM_P1;HPM_P2
2023/06/07 00:01:33;;;;;;;;;13.00;11.75;27.00;49.60;;;;;;111578;1238;54237;-76
2023/06/07 00:04:02;;;;;;;;;15.75;13.00;27.00;49.60;;;;;;111564;1241;44454;-75
2023/06/07 00:06:32;;;;;;;;;15.67;12.67;27.00;49.80;;;;;;111814;1238;49712;-76
2023/06/07 00:08:59;;;;;;;;;12.75;11.75;27.00;50.20;;;;;;111355;1243;49069;-77
2023/06/07 00:11:26;;;;;;;;;12.67;11.67;27.00;49.80;;;;;;111341;1243;53618;-75
2023/06/07 00:13:53;;;;;;;;;11.00;10.00;27.00;49.60;;;;;;111430;1244;44554;-78
2023/06/07 00:16:20;;;;;;;;;13.75;12.75;27.00;49.80;;;;;;111579;1240;49896;-76
2023/06/07 00:18:47;;;;;;;;;12.00;11.00;26.90;49.60;;;;;;111329;1243;49655;-78
2023/06/07 00:21:13;;;;;;;;;16.00;13.00;27.00;49.60;;;;;;111306;1245;53893;-79
2023/06/07 00:23:40;;;;;;;;;14.50;13.25;26.90;49.60;;;;;;111342;1238;44797;-79
2023/06/07 00:26:07;;;;;;;;;12.75;12.00;26.90;49.60;;;;;;111658;1244;49841;-79
2023/06/07 00:28:34;;;;;;;;;14.00;13.00;26.90;49.60;;;;;;111390;1244;49202;-78
2023/06/07 00:31:01;;;;;;;;;16.00;13.00;26.90;49.60;;;;;;111353;1244;53947;-76
2023/06/07 00:33:28;;;;;;;;;13.25;11.00;26.90;49.50;;;;;;111373;1244;45850;-75
2023/06/07 00:35:55;;;;;;;;;13.33;12.67;26.90;49.60;;;;;;111630;1242;49994;-75
2023/06/07 00:38:23;;;;;;;;;12.00;10.00;26.90;49.60;;;;;;111340;1243;50107;-76
2023/06/07 00:40:51;;;;;;;;;12.00;10.75;26.90;49.50;;;;;;111331;1244;54275;-75
2023/06/07 00:43:17;;;;;;;;;12.00;11.00;26.90;49.50;;;;;;111471;1243;44447;-77
2023/06/07 00:45:44;;;;;;;;;12.00;11.00;26.90;49.60;;;;;;111632;1243;49226;-76
2023/06/07 00:48:12;;;;;;;;;13.00;10.00;26.90;49.60;;;;;;111345;1242;49265;-77
2023/06/07 00:50:39;;;;;;;;;12.33;11.00;26.90;49.50;;;;;;111244;1238;54231;-76
2023/06/07 00:53:07;;;;;;;;;10.00;9.00;26.90;49.50;;;;;;111331;1238;44863;-78
2023/06/07 00:55:34;;;;;;;;;13.75;11.00;26.80;49.70;;;;;;111577;1244;48872;-77
2023/06/07 00:58:01;;;;;;;;;12.50;11.50;26.80;49.50;;;;;;111324;1244;50864;-78
2023/06/07 01:00:29;;;;;;;;;13.00;12.00;26.80;49.50;;;;;;111302;1244;53385;-80
2023/06/07 01:02:56;;;;;;;;;12.00;11.00;26.80;49.50;;;;;;111241;1244;44179;-76
2023/06/07 01:05:23;;;;;;;;;12.00;11.00;26.80;49.50;;;;;;111648;1238;49056;-76
2023/06/07 01:07:53;;;;;;;;;10.00;9.00;26.80;49.70;;;;;;111240;1241;50532;-76
2023/06/07 01:10:20;;;;;;;;;13.00;11.00;26.80;49.50;;;;;;111316;1240;54176;-76
2023/06/07 01:12:49;;;;;;;;;12.00;9.50;26.80;49.50;;;;;;111486;1243;44764;-76
2023/06/07 01:15:16;;;;;;;;;13.25;12.00;26.80;49.70;;;;;;111725;1238;49328;-76
2023/06/07 01:17:44;;;;;;;;;11.75;10.75;26.80;49.50;;;;;;111521;1241;49387;-76
2023/06/07 01:20:18;;;;;;;;;11.75;10.75;26.80;49.50;;;;;;111567;1240;53934;-75
2023/06/07 01:22:45;;;;;;;;;12.00;11.00;26.80;49.40;;;;;;110384;1243;1204140;-76
2023/06/07 01:25:12;;;;;;;;;14.00;11.50;26.80;49.40;;;;;;111732;1244;49109;-76
2023/06/07 01:27:43;;;;;;;;;12.00;11.00;26.80;49.50;;;;;;111625;1241;49761;-76
2023/06/07 01:30:11;;;;;;;;;13.00;12.00;26.80;49.60;;;;;;111561;1244;53783;-77
2023/06/07 01:32:40;;;;;;;;;11.00;10.00;26.80;49.40;;;;;;111471;1243;45704;-76
2023/06/07 01:35:09;;;;;;;;;12.00;11.00;26.80;49.40;;;;;;111695;1241;49186;-78
2023/06/07 01:37:38;;;;;;;;;14.00;13.00;26.80;49.50;;;;;;111498;1238;49397;-76
2023/06/07 01:40:05;;;;;;;;;11.25;10.00;26.80;49.50;;;;;;111329;1238;54142;-76
2023/06/07 01:42:34;;;;;;;;;10.75;9.75;26.80;49.30;;;;;;111392;1244;44387;-76
2023/06/07 01:45:03;;;;;;;;;13.00;12.00;26.70;49.30;;;;;;111697;1244;50054;-77
2023/06/07 01:47:30;;;;;;;;;11.75;10.75;26.70;49.40;;;;;;111595;1241;49226;-77
2023/06/07 01:49:57;;;;;;;;;13.00;12.00;26.70;49.50;;;;;;111353;1243;53461;-77
2023/06/07 01:52:24;;;;;;;;;11.00;10.00;26.80;49.40;;;;;;111406;1238;44544;-77
2023/06/07 01:54:51;;;;;;;;;11.00;10.00;26.70;49.30;;;;;;111839;1238;49442;-77
2023/06/07 01:57:59;;;;;;;;;12.67;10.33;26.70;49.40;;;;;;111351;1244;49674;-76
2023/06/07 02:00:35;;;;;;;;;11.50;10.25;26.70;49.40;;;;;;111115;1241;54124;-78
2023/06/07 02:03:26;;;;;;;;;11.00;10.00;26.70;49.30;;;;;;111392;1239;44875;-77
2023/06/07 02:05:59;;;;;;;;;11.00;10.00;26.70;49.40;;;;;;111681;1243;48970;-78
2023/06/07 02:08:32;;;;;;;;;12.00;11.00;26.70;49.40;;;;;;111462;1238;51126;-77
2023/06/07 02:11:01;;;;;;;;;12.50;11.00;26.80;49.20;;;;;;111684;1241;53554;-77
2023/06/07 02:13:33;;;;;;;;;13.00;12.00;26.70;49.40;;;;;;111618;1238;44205;-77
2023/06/07 02:16:04;;;;;;;;;11.00;10.00;26.70;49.30;;;;;;111718;1244;49180;-78
2023/06/07 02:18:40;;;;;;;;;12.00;11.00;26.70;49.30;;;;;;111372;1242;49745;-76
2023/06/07 02:21:08;;;;;;;;;11.00;9.75;26.70;49.20;;;;;;111577;1238;53822;-76
2023/06/07 02:23:36;;;;;;;;;12.00;11.00;26.70;49.30;;;;;;111535;1241;44983;-76
2023/06/07 02:26:03;;;;;;;;;12.00;11.00;26.70;49.20;;;;;;111860;1238;50255;-75
2023/06/07 02:28:30;;;;;;;;;13.67;12.67;26.70;49.30;;;;;;111356;1243;50074;-75
2023/06/07 02:30:57;;;;;;;;;11.25;10.25;26.70;49.30;;;;;;111369;1238;53829;-76
2023/06/07 02:33:24;;;;;;;;;13.67;11.33;26.70;49.30;;;;;;111351;1244;44744;-77
2023/06/07 02:35:52;;;;;;;;;12.67;10.00;26.60;49.30;;;;;;111697;1244;49949;-78
2023/06/07 02:38:19;;;;;;;;;10.00;9.00;26.60;49.30;;;;;;111624;1241;50178;-77
2023/06/07 02:40:46;;;;;;;;;14.00;12.00;26.60;49.30;;;;;;111605;1239;53621;-77
2023/06/07 02:43:14;;;;;;;;;11.00;10.00;26.60;49.30;;;;;;111667;1241;44494;-82
2023/06/07 02:45:41;;;;;;;;;12.00;11.00;26.60;49.30;;;;;;111734;1241;49184;-80
2023/06/07 02:48:08;;;;;;;;;12.00;11.00;26.60;49.30;;;;;;111351;1243;49412;-76
2023/06/07 02:50:35;;;;;;;;;11.00;10.00;26.60;49.40;;;;;;111317;1243;53909;-76
2023/06/07 02:53:03;;;;;;;;;10.00;9.00;26.60;49.30;;;;;;111561;1241;44512;-78
2023/06/07 02:55:30;;;;;;;;;11.00;10.00;26.60;49.40;;;;;;111727;1243;48775;-78
2023/06/07 02:57:56;;;;;;;;;10.00;9.00;26.50;49.30;;;;;;111560;1238;49166;-79
2023/06/07 03:00:24;;;;;;;;;10.75;9.75;26.50;49.30;;;;;;111591;1241;53584;-79
2023/06/07 03:02:51;;;;;;;;;13.00;12.00;26.50;49.30;;;;;;111570;1238;44244;-79
2023/06/07 03:05:18;;;;;;;;;11.25;10.25;26.50;49.40;;;;;;111718;1243;49697;-78
2023/06/07 03:07:46;;;;;;;;;12.00;11.00;26.50;49.40;;;;;;111446;1238;50474;-77
2023/06/07 03:10:13;;;;;;;;;12.00;11.00;26.50;49.40;;;;;;111540;1242;54247;-79
2023/06/07 03:12:39;;;;;;;;;12.75;10.00;26.50;49.30;;;;;;111491;1245;44596;-78
2023/06/07 03:15:07;;;;;;;;;11.00;10.00;26.50;49.30;;;;;;111766;1241;49826;-78
2023/06/07 03:17:35;;;;;;;;;11.00;10.00;26.50;49.40;;;;;;111307;1244;50113;-77
2023/06/07 03:20:06;;;;;;;;;10.00;9.00;26.50;49.30;;;;;;111282;1244;54363;-71
2023/06/07 03:22:36;;;;;;;;;12.00;11.00;26.50;49.30;;;;;;111362;1240;45342;-70
2023/06/07 03:25:03;;;;;;;;;12.00;10.00;26.50;49.40;;;;;;111659;1240;49681;-71
2023/06/07 03:27:32;;;;;;;;;11.75;10.75;26.50;49.50;;;;;;111382;1244;49924;-72
2023/06/07 03:29:59;;;;;;;;;11.33;10.00;26.50;49.30;;;;;;111360;1238;54355;-72
2023/06/07 03:32:26;;;;;;;;;10.00;9.00;26.50;49.30;;;;;;111416;1238;44599;-70
2023/06/07 03:34:53;;;;;;;;;10.25;9.25;26.50;49.30;;;;;;111646;1244;49263;-72
2023/06/07 03:37:20;;;;;;;;;11.75;10.75;26.50;49.40;;;;;;111342;1244;50048;-72
2023/06/07 03:39:47;;;;;;;;;12.00;10.00;26.50;49.30;;;;;;111334;1238;53460;-72
2023/06/07 03:42:14;;;;;;;;;13.00;11.00;26.50;49.30;;;;;;111367;1242;44239;-72
2023/06/07 03:44:41;;;;;;;;;11.00;10.00;26.50;49.50;;;;;;111809;1244;50446;-71
2023/06/07 03:47:08;;;;;;;;;10.00;9.00;26.50;49.40;;;;;;111362;1238;48927;-71
2023/06/07 03:49:35;;;;;;;;;12.00;11.00;26.50;49.40;;;;;;111369;1238;54190;-72
2023/06/07 03:52:02;;;;;;;;;10.00;9.00;26.40;49.30;;;;;;111277;1244;44973;-73
2023/06/07 03:54:29;;;;;;;;;14.00;11.75;26.40;49.30;;;;;;111573;1244;49568;-77
2023/06/07 03:56:57;;;;;;;;;11.67;10.33;26.40;49.30;;;;;;111328;1240;49970;-74
2023/06/07 03:59:26;;;;;;;;;11.00;10.00;26.40;49.30;;;;;;111340;1238;53799;-75
2023/06/07 04:01:54;;;;;;;;;13.00;12.00;26.40;49.40;;;;;;111326;1240;44283;-74
2023/06/07 04:04:21;;;;;;;;;13.00;11.33;26.40;49.50;;;;;;111671;1240;49358;-74
2023/06/07 04:06:48;;;;;;;;;11.75;10.75;26.40;49.40;;;;;;111448;1244;49114;-71
2023/06/07 04:09:18;;;;;;;;;11.00;10.00;26.40;49.60;;;;;;111380;1240;54204;-72
2023/06/07 04:11:45;;;;;;;;;12.75;11.75;26.40;49.40;;;;;;111387;1243;44679;-73
2023/06/07 04:14:12;;;;;;;;;12.00;10.00;26.40;49.50;;;;;;111621;1241;49208;-73
2023/06/07 04:16:39;;;;;;;;;11.00;9.75;26.40;49.40;;;;;;111598;1238;50440;-74
2023/06/07 04:19:06;;;;;;;;;11.75;10.75;26.40;49.30;;;;;;111650;1241;55105;-75
2023/06/07 04:21:33;;;;;;;;;10.00;9.00;26.40;49.30;;;;;;111440;1240;44375;-74
2023/06/07 04:24:00;;;;;;;;;12.67;11.67;26.40;49.30;;;;;;111326;1238;49095;-74
2023/06/07 04:26:31;;;;;;;;;11.25;10.25;26.40;49.30;;;;;;111651;1243;49988;-70
2023/06/07 04:28:58;;;;;;;;;18.00;15.00;26.40;49.30;;;;;;111281;1238;53454;-77
2023/06/07 04:31:29;;;;;;;;;25.50;17.00;26.40;50.30;;;;;;111331;1241;45010;-76
2023/06/07 04:34:01;;;;;;;;;21.50;17.00;26.40;50.40;;;;;;111193;1248;49363;-71
2023/06/07 04:36:28;;;;;;;;;25.33;20.00;26.40;51.40;;;;;;111636;1243;49050;-65
2023/06/07 04:39:01;;;;;;;;;25.75;22.25;26.40;51.90;;;;;;111328;1243;54168;-64
2023/06/07 04:41:32;;;;;;;;;31.00;20.00;26.40;52.10;;;;;;111222;1241;44161;-69
2023/06/07 04:44:03;;;;;;;;;26.25;20.25;26.40;52.10;;;;;;111362;1240;49231;-74
2023/06/07 04:46:30;;;;;;;;;26.00;18.50;26.40;52.30;;;;;;111288;1244;49500;-73
2023/06/07 04:48:58;;;;;;;;;20.33;19.00;26.40;52.20;;;;;;111321;1240;54514;-66
2023/06/07 04:51:29;;;;;;;;;25.75;18.75;26.40;52.20;;;;;;111382;1240;44466;-66
2023/06/07 04:54:01;;;;;;;;;24.25;20.50;26.40;53.60;;;;;;111428;1240;49976;-67
2023/06/07 04:56:28;;;;;;;;;25.00;19.67;26.40;53.30;;;;;;111297;1243;49444;-67
2023/06/07 04:58:55;;;;;;;;;18.00;16.00;26.40;53.10;;;;;;111294;1238;54300;-63
2023/06/07 05:01:22;;;;;;;;;18.00;15.25;26.40;53.10;;;;;;111300;1243;44752;-66
2023/06/07 05:03:50;;;;;;;;;15.00;14.00;26.40;53.00;;;;;;111324;1240;49649;-64
2023/06/07 05:06:18;;;;;;;;;21.00;18.00;26.40;53.00;;;;;;111369;1240;49396;-65
2023/06/07 05:08:46;;;;;;;;;31.75;24.00;26.40;53.40;;;;;;111277;1239;53545;-65
2023/06/07 05:11:13;;;;;;;;;32.75;28.00;26.40;53.60;;;;;;111224;1238;44685;-68
2023/06/07 05:13:40;;;;;;;;;29.00;22.00;26.40;53.30;;;;;;111304;1238;50076;-67
2023/06/07 05:16:11;;;;;;;;;23.75;20.00;26.40;53.10;;;;;;111691;1243;49635;-69
2023/06/07 05:18:39;;;;;;;;;24.75;19.00;26.40;52.50;;;;;;111334;1243;53309;-65
2023/06/07 05:21:06;;;;;;;;;23.00;21.75;26.50;52.90;;;;;;111414;1240;44525;-65
2023/06/07 05:23:33;;;;;;;;;24.50;19.00;26.50;52.90;;;;;;111578;1238;49612;-65
2023/06/07 05:25:59;;;;;;;;;25.25;19.75;26.50;52.80;;;;;;111879;1237;49335;-64
2023/06/07 05:28:26;;;;;;;;;20.25;18.75;26.50;52.70;;;;;;111304;1240;53800;-66
2023/06/07 05:30:55;;;;;;;;;20.50;18.75;26.50;52.60;;;;;;111416;1238;45113;-66
2023/06/07 05:33:22;;;;;;;;;24.00;20.25;26.50;52.50;;;;;;111604;1241;50336;-66
2023/06/07 05:35:49;;;;;;;;;20.50;16.50;26.60;52.70;;;;;;111945;1241;50452;-65
2023/06/07 05:38:16;;;;;;;;;17.25;16.25;26.60;52.60;;;;;;111615;1240;53693;-69
2023/06/07 05:40:43;;;;;;;;;19.50;17.00;26.60;52.50;;;;;;111568;1238;44089;-63
2023/06/07 05:43:10;;;;;;;;;20.25;19.00;26.70;52.50;;;;;;111466;1238;49592;-64
2023/06/07 05:45:37;;;;;;;;;19.50;16.25;26.70;52.50;;;;;;111307;1243;49416;-63
2023/06/07 05:48:05;;;;;;;;;22.25;17.25;26.70;52.40;;;;;;111415;1240;53365;-63
2023/06/07 05:50:32;;;;;;;;;18.50;16.00;26.70;52.10;;;;;;111580;1238;45059;-61
2023/06/07 05:52:59;;;;;;;;;21.00;18.67;26.80;52.20;;;;;;111377;1245;49189;-64
2023/06/07 05:55:27;;;;;;;;;18.00;16.25;26.80;52.20;;;;;;111528;1241;49052;-64
2023/06/07 05:57:57;;;;;;;;;19.00;18.00;26.80;52.20;;;;;;111251;1241;54533;-64
2023/06/07 06:00:24;;;;;;;;;18.50;15.75;26.80;52.30;;;;;;111429;1238;44941;-62
2023/06/07 06:02:52;;;;;;;;;19.25;16.00;26.80;52.10;;;;;;111447;1238;50122;-63
2023/06/07 06:05:27;;;;;;;;;18.25;17.00;26.80;52.20;;;;;;111585;1238;49647;-64
2023/06/07 06:07:55;;;;;;;;;26.00;20.00;26.80;52.40;;;;;;111326;1243;53683;-62
2023/06/07 06:10:23;;;;;;;;;18.50;17.25;26.80;52.20;;;;;;111293;1240;45054;-62
2023/06/07 06:12:50;;;;;;;;;20.25;19.00;26.80;52.10;;;;;;111314;1244;49024;-63
2023/06/07 06:15:17;;;;;;;;;18.50;16.50;26.90;52.40;;;;;;111553;1238;50290;-64
2023/06/07 06:17:44;;;;;;;;;25.50;18.00;26.90;52.20;;;;;;111377;1238;54787;-63
2023/06/07 06:20:12;;;;;;;;;20.75;16.00;26.90;52.10;;;;;;111588;1243;44941;-64
2023/06/07 06:22:39;;;;;;;;;19.00;17.75;26.90;52.10;;;;;;111574;1241;49841;-64
2023/06/07 06:25:07;;;;;;;;;21.00;16.50;26.90;52.00;;;;;;111679;1241;50605;-64
2023/06/07 06:27:34;;;;;;;;;17.75;16.50;27.00;52.10;;;;;;111653;1237;53062;-64
2023/06/07 06:30:00;;;;;;;;;18.50;17.50;27.00;52.00;;;;;;111354;1238;44584;-64
2023/06/07 06:32:27;;;;;;;;;21.25;18.75;27.00;51.90;;;;;;111327;1240;49043;-63
2023/06/07 06:34:55;;;;;;;;;17.75;16.00;27.00;51.90;;;;;;111587;1238;49113;-63
2023/06/07 06:37:23;;;;;;;;;21.00;15.50;27.00;51.90;;;;;;111677;1238;53838;-62
2023/06/07 06:39:54;;;;;;;;;18.33;17.33;27.00;51.90;;;;;;111849;1238;44788;-61
2023/06/07 06:42:21;;;;;;;;;21.75;17.00;27.10;51.90;;;;;;111588;1243;49588;-62
2023/06/07 06:44:48;;;;;;;;;21.25;17.25;27.10;51.70;;;;;;111529;1239;49193;-61
2023/06/07 06:47:15;;;;;;;;;17.50;16.50;27.20;51.60;;;;;;111539;1240;53454;-61
2023/06/07 06:49:42;;;;;;;;;20.00;17.00;27.20;51.50;;;;;;111883;1241;45211;-61
2023/06/07 06:52:08;;;;;;;;;16.00;15.00;27.20;51.40;;;;;;111848;1238;49488;-67
2023/06/07 06:54:35;;;;;;;;;17.67;15.67;27.30;51.60;;;;;;111570;1243;49887;-65
2023/06/07 06:57:03;;;;;;;;;22.25;18.75;27.30;51.20;;;;;;111489;1239;53975;-65
2023/06/07 06:59:29;;;;;;;;;20.00;15.75;27.30;51.20;;;;;;111477;1241;44865;-64
2023/06/07 07:01:56;;;;;;;;;16.50;14.00;27.40;51.20;;;;;;111381;1238;49636;-64
2023/06/07 07:04:23;;;;;;;;;19.25;17.00;27.40;51.40;;;;;;111553;1243;50670;-66
2023/06/07 07:06:50;;;;;;;;;15.75;13.00;27.40;51.30;;;;;;111378;1240;54564;-66
2023/06/07 07:09:17;;;;;;;;;14.00;13.00;27.30;51.30;;;;;;111582;1238;45496;-66
2023/06/07 07:11:44;;;;;;;;;19.75;18.75;27.30;51.30;;;;;;111508;1243;49766;-67
2023/06/07 07:14:11;;;;;;;;;15.00;14.00;27.40;51.40;;;;;;111605;1238;49244;-63
2023/06/07 07:16:39;;;;;;;;;20.25;18.00;27.40;51.30;;;;;;111515;1244;53516;-62
2023/06/07 07:19:06;;;;;;;;;18.00;16.00;27.40;51.80;;;;;;111329;1243;44787;-62
2023/06/07 07:21:33;;;;;;;;;17.00;16.00;27.40;51.60;;;;;;111355;1238;48901;-61
2023/06/07 07:24:00;;;;;;;;;18.00;17.00;27.40;51.50;;;;;;111310;1238;50332;-60
2023/06/07 07:26:27;;;;;;;;;17.75;16.75;27.40;51.50;;;;;;111238;1240;53282;-61
2023/06/07 07:28:54;;;;;;;;;18.00;14.00;27.40;51.60;;;;;;111261;1240;45869;-61
2023/06/07 07:31:21;;;;;;;;;17.50;15.25;27.40;51.60;;;;;;111339;1238;49487;-62
2023/06/07 07:33:48;;;;;;;;;15.25;13.00;27.40;51.50;;;;;;111404;1238;49796;-61
2023/06/07 07:36:16;;;;;;;;;17.50;16.50;27.40;51.80;;;;;;111447;1238;54284;-61
2023/06/07 07:38:45;;;;;;;;;19.00;17.00;27.40;51.90;;;;;;111329;1244;44334;-61
2023/06/07 07:41:14;;;;;;;;;17.75;15.75;27.40;51.60;;;;;;111304;1241;49157;-60
2023/06/07 07:43:41;;;;;;;;;16.00;15.00;27.50;51.90;;;;;;111276;1240;49482;-62
2023/06/07 07:46:08;;;;;;;;;18.75;16.00;27.40;51.70;;;;;;111331;1244;54353;-63
2023/06/07 07:48:35;;;;;;;;;18.00;17.00;27.40;51.50;;;;;;111472;1243;45148;-61
2023/06/07 07:51:03;;;;;;;;;16.00;15.00;27.50;51.40;;;;;;111554;1244;50210;-59
2023/06/07 07:53:30;;;;;;;;;17.00;16.00;27.50;51.40;;;;;;111583;1240;49756;-60
2023/06/07 07:55:57;;;;;;;;;16.00;13.67;27.50;51.40;;;;;;111505;1244;54186;-59
2023/06/07 07:58:25;;;;;;;;;16.00;15.00;27.50;51.20;;;;;;111169;1242;44858;-59
2023/06/07 08:00:52;;;;;;;;;13.00;12.00;27.50;51.20;;;;;;111365;1244;49662;-60
2023/06/07 08:03:19;;;;;;;;;15.50;13.00;27.50;51.10;;;;;;111359;1242;49287;-62
2023/06/07 08:05:46;;;;;;;;;17.00;16.00;27.50;51.30;;;;;;111418;1238;53361;-61
2023/06/07 08:08:16;;;;;;;;;14.25;13.25;27.60;51.30;;;;;;111358;1240;45281;-61
2023/06/07 08:10:44;;;;;;;;;17.50;16.25;27.60;51.10;;;;;;111518;1243;49547;-63
2023/06/07 08:13:12;;;;;;;;;18.33;15.67;27.60;51.00;;;;;;111368;1244;49965;-61
2023/06/07 08:15:39;;;;;;;;;15.00;13.75;27.60;50.90;;;;;;111282;1241;53196;-64
2023/06/07 08:18:06;;;;;;;;;18.50;15.25;27.60;51.10;;;;;;111349;1238;45653;-61
2023/06/07 08:20:33;;;;;;;;;15.50;14.00;27.60;51.00;;;;;;111319;1244;49129;-61
2023/06/07 08:23:00;;;;;;;;;15.75;14.75;27.60;50.80;;;;;;111384;1241;49455;-61
2023/06/07 08:25:27;;;;;;;;;17.75;16.25;27.60;50.80;;;;;;111333;1244;53384;-61
2023/06/07 08:27:54;;;;;;;;;21.50;17.00;27.60;50.80;;;;;;111303;1239;45582;-62
2023/06/07 08:30:21;;;;;;;;;18.00;17.00;27.60;50.90;;;;;;111345;1240;49566;-62
2023/06/07 08:32:50;;;;;;;;;15.75;14.50;27.60;51.00;;;;;;111226;1244;49059;-60
2023/06/07 08:35:17;;;;;;;;;15.75;14.75;27.60;50.80;;;;;;111291;1238;54796;-60
2023/06/07 08:37:44;;;;;;;;;16.00;15.00;27.60;50.90;;;;;;111274;1240;44216;-61
2023/06/07 08:40:12;;;;;;;;;17.75;14.50;27.60;50.80;;;;;;111326;1244;49165;-61
2023/06/07 08:42:39;;;;;;;;;13.75;12.75;27.70;51.90;;;;;;111265;1244;49422;-62
2023/06/07 08:45:07;;;;;;;;;16.00;15.00;27.70;51.80;;;;;;111226;1240;55016;-59
2023/06/07 08:47:35;;;;;;;;;15.50;14.00;27.70;51.60;;;;;;111254;1240;44300;-62
2023/06/07 08:50:03;;;;;;;;;15.75;14.00;27.70;51.20;;;;;;111321;1244;48831;-60
2023/06/07 08:52:31;;;;;;;;;20.00;17.00;27.70;51.20;;;;;;111407;1243;50328;-61
2023/06/07 08:55:02;;;;;;;;;18.33;17.00;27.70;51.20;;;;;;111274;1240;54833;-61
2023/06/07 08:57:31;;;;;;;;;18.75;16.00;27.70;51.10;;;;;;111147;1241;44445;-61
2023/06/07 08:59:59;;;;;;;;;17.00;16.00;27.70;51.00;;;;;;111264;1243;49553;-60
2023/06/07 09:02:26;;;;;;;;;20.50;18.00;27.70;50.70;;;;;;111134;1245;49807;-59
2023/06/07 09:04:53;;;;;;;;;19.25;18.00;27.70;50.80;;;;;;111308;1240;54156;-60
2023/06/07 09:07:20;;;;;;;;;15.25;14.25;27.70;51.20;;;;;;111246;1244;45260;-61
2023/06/07 09:09:47;;;;;;;;;16.25;14.50;27.80;50.80;;;;;;111293;1240;49765;-62
2023/06/07 09:12:14;;;;;;;;;16.75;15.75;27.80;50.80;;;;;;111308;1244;50211;-62
2023/06/07 09:14:42;;;;;;;;;16.00;15.00;27.80;50.90;;;;;;111581;1238;53316;-60
2023/06/07 09:17:08;;;;;;;;;16.00;14.00;27.80;50.50;;;;;;111511;1244;44461;-61
2023/06/07 09:19:38;;;;;;;;;20.00;19.00;27.80;50.40;;;;;;111306;1238;49476;-60
2023/06/07 09:22:07;;;;;;;;;15.75;14.75;27.80;50.00;;;;;;111312;1241;49797;-61
2023/06/07 09:24:35;;;;;;;;;16.00;15.00;27.80;49.80;;;;;;111444;1243;53996;-61
2023/06/07 09:27:03;;;;;;;;;16.75;14.75;27.80;50.00;;;;;;111602;1241;44919;-62
2023/06/07 09:29:39;;;;;;;;;19.00;16.67;27.90;49.80;;;;;;111584;1243;50061;-60
2023/06/07 09:32:18;;;;;;;;;18.00;16.67;27.90;49.80;;;;;;111380;1240;50349;-60
2023/06/07 09:34:45;;;;;;;;;19.75;16.50;27.90;49.60;;;;;;111535;1237;53919;-59
2023/06/07 09:37:14;;;;;;;;;20.33;19.33;28.00;50.00;;;;;;111635;1239;44742;-60
2023/06/07 09:39:41;;;;;;;;;18.00;17.00;28.00;49.90;;;;;;111378;1243;49785;-60
2023/06/07 09:42:16;;;;;;;;;15.33;14.33;28.00;49.80;;;;;;111407;1238;49867;-60
2023/06/07 09:44:43;;;;;;;;;17.50;15.50;28.00;49.80;;;;;;111551;1238;54091;-59
2023/06/07 09:47:21;;;;;;;;;15.75;14.50;28.00;50.10;;;;;;111676;1242;44631;-61
2023/06/07 09:49:54;;;;;;;;;17.75;16.75;28.00;49.80;;;;;;111366;1238;49642;-59
2023/06/07 09:52:21;;;;;;;;;16.00;15.00;28.00;49.90;;;;;;111229;1240;48955;-61
2023/06/07 09:54:48;;;;;;;;;16.50;15.50;28.10;49.80;;;;;;111397;1242;54825;-61
2023/06/07 09:57:24;;;;;;;;;18.00;17.00;28.00;49.60;;;;;;111380;1238;45452;-60
2023/06/07 09:59:58;;;;;;;;;22.25;17.75;28.00;49.70;;;;;;111272;1239;50074;-60
2023/06/07 10:02:27;;;;;;;;;16.50;13.50;28.00;49.80;;;;;;111285;1240;49191;-60
2023/06/07 10:04:56;;;;;;;;;16.00;15.00;28.00;50.10;;;;;;111261;1243;53911;-59
2023/06/07 10:07:23;;;;;;;;;20.00;17.00;28.00;49.70;;;;;;111290;1239;45440;-59
2023/06/07 10:09:57;;;;;;;;;19.00;16.00;28.10;49.70;;;;;;111327;1238;49113;-59
2023/06/07 10:12:28;;;;;;;;;18.00;17.00;28.10;49.70;;;;;;111224;1239;50266;-60
2023/06/07 10:14:56;;;;;;;;;17.00;16.00;28.10;49.70;;;;;;111509;1238;54338;-61
2023/06/07 10:17:28;;;;;;;;;18.00;15.00;28.10;49.70;;;;;;111341;1240;45085;-60
2023/06/07 10:20:00;;;;;;;;;16.00;15.00;28.10;49.60;;;;;;111267;1243;51029;-62
2023/06/07 10:22:30;;;;;;;;;19.75;18.75;28.10;49.50;;;;;;111390;1239;49308;-60
2023/06/07 10:25:10;;;;;;;;;18.00;15.25;28.10;49.40;;;;;;111247;1243;54410;-60
2023/06/07 10:27:59;;;;;;;;;15.00;14.00;28.10;49.70;;;;;;111266;1243;45101;-60
2023/06/07 10:30:27;;;;;;;;;16.00;14.00;28.10;49.70;;;;;;111294;1240;49307;-60
2023/06/07 10:32:54;;;;;;;;;17.00;16.00;28.10;49.70;;;;;;111205;1244;49068;-59
2023/06/07 10:35:21;;;;;;;;;18.75;16.00;28.10;49.70;;;;;;111278;1243;54624;-61
2023/06/07 10:37:55;;;;;;;;;17.33;16.33;28.10;49.80;;;;;;111220;1244;45426;-59
2023/06/07 10:40:22;;;;;;;;;18.25;17.00;28.10;49.90;;;;;;111254;1243;49691;-61
2023/06/07 10:42:50;;;;;;;;;18.33;17.33;28.10;49.60;;;;;;111368;1242;48908;-59
2023/06/07 10:45:19;;;;;;;;;19.00;16.00;28.10;49.30;;;;;;111525;1238;53306;-60
2023/06/07 10:47:49;;;;;;;;;19.00;18.00;28.10;49.50;;;;;;111524;1239;44237;-61
2023/06/07 10:50:30;;;;;;;;;18.75;15.75;28.10;49.70;;;;;;111542;1238;50041;-59
2023/06/07 10:52:58;;;;;;;;;20.33;17.00;28.10;49.60;;;;;;111303;1238;50113;-60
2023/06/07 10:55:27;;;;;;;;;21.75;20.75;28.10;49.20;;;;;;111271;1238;53803;-61
2023/06/07 10:57:54;;;;;;;;;17.25;16.00;28.10;48.90;;;;;;111335;1238;44629;-60
2023/06/07 11:00:33;;;;;;;;;18.25;17.25;28.10;48.90;;;;;;111499;1238;49703;-61
2023/06/07 11:03:10;;;;;;;;;18.25;16.50;28.10;49.10;;;;;;111321;1238;49533;-61
2023/06/07 11:05:58;;;;;;;;;19.75;18.00;28.10;49.30;;;;;;111369;1238;53249;-61
2023/06/07 11:08:27;;;;;;;;;17.50;16.50;28.10;49.30;;;;;;111227;1243;45592;-59
2023/06/07 11:11:00;;;;;;;;;18.00;16.75;28.20;49.50;;;;;;111267;1238;49719;-60
2023/06/07 11:13:43;;;;;;;;;17.75;16.50;28.20;49.70;;;;;;111243;1243;50095;-60
2023/06/07 11:16:25;;;;;;;;;20.00;17.33;28.20;49.80;;;;;;111306;1243;54375;-60
2023/06/07 11:19:07;;;;;;;;;21.00;18.00;28.20;49.40;;;;;;111295;1240;44326;-59
2023/06/07 11:22:04;;;;;;;;;19.00;18.00;28.20;49.30;;;;;;111289;1239;49487;-60
2023/06/07 11:24:32;;;;;;;;;19.75;17.50;28.20;49.20;;;;;;111377;1241;50551;-61
2023/06/07 11:26:59;;;;;;;;;18.25;16.25;28.20;49.10;;;;;;111524;1241;53847;-60
2023/06/07 11:29:27;;;;;;;;;22.00;17.75;28.20;49.20;;;;;;111376;1238;44938;-66
2023/06/07 11:32:01;;;;;;;;;19.50;16.75;28.30;49.00;;;;;;111464;1244;48853;-60
2023/06/07 11:34:30;;;;;;;;;17.00;15.67;28.30;49.00;;;;;;111515;1238;50747;-62
2023/06/07 11:37:16;;;;;;;;;35.00;29.00;28.30;49.00;;;;;;111176;1243;54106;-63
2023/06/07 11:39:44;;;;;;;;;50.25;32.25;28.30;50.10;;;;;;111343;1238;45250;-61
2023/06/07 11:42:11;;;;;;;;;38.50;32.75;28.30;51.70;;;;;;111503;1242;49037;-61
2023/06/07 11:44:38;;;;;;;;;28.00;24.50;28.30;51.20;;;;;;111525;1241;49876;-61
2023/06/07 11:47:06;;;;;;;;;28.75;24.00;28.20;50.90;;;;;;111284;1241;53567;-62
2023/06/07 11:49:35;;;;;;;;;32.00;26.00;28.20;50.90;;;;;;111533;1238;44998;-61
2023/06/07 11:52:02;;;;;;;;;26.50;20.50;28.20;51.20;;;;;;111279;1241;50308;-61
2023/06/07 11:54:29;;;;;;;;;27.50;23.00;28.10;51.10;;;;;;111516;1241;49959;-60
2023/06/07 11:56:56;;;;;;;;;27.25;23.00;28.10;51.20;;;;;;111389;1242;54144;-61
2023/06/07 11:59:23;;;;;;;;;27.25;23.25;28.00;51.40;;;;;;111478;1240;45881;-60
2023/06/07 12:01:52;;;;;;;;;29.00;23.75;28.00;51.50;;;;;;111580;1241;50446;-61
2023/06/07 12:04:21;;;;;;;;;28.00;25.00;28.00;51.70;;;;;;111446;1241;49247;-61
2023/06/07 12:06:49;;;;;;;;;26.33;20.67;27.90;51.70;;;;;;111336;1243;54034;-64
2023/06/07 12:09:19;;;;;;;;;25.25;22.00;27.90;52.30;;;;;;111278;1240;45773;-61
2023/06/07 12:11:47;;;;;;;;;25.50;20.75;27.90;51.90;;;;;;111469;1238;49573;-61
2023/06/07 12:14:31;;;;;;;;;24.00;20.00;27.90;51.90;;;;;;111316;1238;49766;-62
2023/06/07 12:16:59;;;;;;;;;27.00;22.50;27.90;52.00;;;;;;111215;1244;54241;-61
2023/06/07 12:19:26;;;;;;;;;30.00;24.75;27.80;52.00;;;;;;111170;1244;44155;-62
2023/06/07 12:22:03;;;;;;;;;28.00;23.00;27.80;52.00;;;;;;111223;1241;49683;-62
2023/06/07 12:24:30;;;;;;;;;20.33;19.33;27.80;52.20;;;;;;111260;1244;49516;-61
2023/06/07 12:26:57;;;;;;;;;23.00;20.00;27.80;52.20;;;;;;111231;1238;53183;-61